sensor_id;sensor_type;location;lat;lon;timestamp;pressure;altitude;pressure_sealevel;temperature;humidity
17362;BME280;8798;51.938;4.348;2024-01-27T00:01:30;102884.34;;;5.94;93.50
17362;BME280;8798;51.938;4.348;2024-01-27T00:03:58;102895.91;;;5.93;92.79
17362;BME280;8798;51.938;4.348;2024-01-27T00:06:27;102894.19;;;5.92;93.14
17362;BME280;8798;51.938;4.348;2024-01-27T00:08:55;102902.19;;;5.92;93.40
17362;BME280;8798;51.938;4.348;2024-01-27T00:11:23;102902.19;;;5.92;93.94
17362;BME280;8798;51.938;4.348;2024-01-27T00:13:53;102897.88;;;5.90;92.75
17362;BME280;8798;51.938;4.348;2024-01-27T00:16:21;102908.53;;;5.90;92.41
17362;BME280;8798;51.938;4.348;2024-01-27T00:18:50;102907.69;;;5.89;93.21
17362;BME280;8798;51.938;4.348;2024-01-27T00:21:18;102899.72;;;5.88;93.74
17362;BME280;8798;51.938;4.348;2024-01-27T00:23:46;102907.81;;;5.86;92.30
17362;BME280;8798;51.938;4.348;2024-01-27T00:26:15;102912.25;;;5.86;93.56
17362;BME280;8798;51.938;4.348;2024-01-27T00:28:43;102909.69;;;5.84;93.41
17362;BME280;8798;51.938;4.348;2024-01-27T00:31:11;102910.69;;;5.81;92.55
17362;BME280;8798;51.938;4.348;2024-01-27T00:33:39;102908.94;;;5.80;92.44
17362;BME280;8798;51.938;4.348;2024-01-27T00:36:08;102913.41;;;5.80;93.13
17362;BME280;8798;51.938;4.348;2024-01-27T00:38:36;102909.94;;;5.78;92.53
17362;BME280;8798;51.938;4.348;2024-01-27T00:41:05;102907.38;;;5.76;92.45
17362;BME280;8798;51.938;4.348;2024-01-27T00:43:33;102902.09;;;5.75;92.71
17362;BME280;8798;51.938;4.348;2024-01-27T00:46:01;102915.47;;;5.73;93.12
17362;BME280;8798;51.938;4.348;2024-01-27T00:48:29;102916.44;;;5.72;93.30
17362;BME280;8798;51.938;4.348;2024-01-27T00:50:57;102910.25;;;5.72;92.42
17362;BME280;8798;51.938;4.348;2024-01-27T00:53:26;102912.09;;;5.70;92.50
17362;BME280;8798;51.938;4.348;2024-01-27T00:55:54;102929.81;;;5.71;92.92
17362;BME280;8798;51.938;4.348;2024-01-27T00:58:22;102932.47;;;5.71;92.37
17362;BME280;8798;51.938;4.348;2024-01-27T01:00:50;102928.97;;;5.70;93.21
17362;BME280;8798;51.938;4.348;2024-01-27T01:03:18;102936.97;;;5.70;93.19
17362;BME280;8798;51.938;4.348;2024-01-27T01:05:47;102937.91;;;5.69;92.87
17362;BME280;8798;51.938;4.348;2024-01-27T01:08:15;102945.91;;;5.69;92.35
17362;BME280;8798;51.938;4.348;2024-01-27T01:10:44;102953.91;;;5.69;92.06
17362;BME280;8798;51.938;4.348;2024-01-27T01:13:12;102955.72;;;5.69;92.57
17362;BME280;8798;51.938;4.348;2024-01-27T01:15:40;102959.22;;;5.69;92.13
17362;BME280;8798;51.938;4.348;2024-01-27T01:18:08;102972.56;;;5.69;92.30
17362;BME280;8798;51.938;4.348;2024-01-27T01:20:36;102971.69;;;5.69;92.04
17362;BME280;8798;51.938;4.348;2024-01-27T01:23:04;102978.81;;;5.68;92.69
17362;BME280;8798;51.938;4.348;2024-01-27T01:25:32;102976.13;;;5.68;93.16
17362;BME280;8798;51.938;4.348;2024-01-27T01:28:01;102970.94;;;5.65;93.00
17362;BME280;8798;51.938;4.348;2024-01-27T01:30:30;102974.47;;;5.66;92.14
17362;BME280;8798;51.938;4.348;2024-01-27T01:32:58;102974.56;;;5.64;93.13
17362;BME280;8798;51.938;4.348;2024-01-27T01:35:26;102983.47;;;5.63;92.99
17362;BME280;8798;51.938;4.348;2024-01-27T01:37:54;102987.91;;;5.64;93.05
17362;BME280;8798;51.938;4.348;2024-01-27T01:40:21;102995.94;;;5.63;92.96
17362;BME280;8798;51.938;4.348;2024-01-27T01:42:50;102993.34;;;5.61;93.06
17362;BME280;8798;51.938;4.348;2024-01-27T01:45:20;102987.22;;;5.59;92.14
17362;BME280;8798;51.938;4.348;2024-01-27T01:47:49;102991.75;;;5.57;91.89
17362;BME280;8798;51.938;4.348;2024-01-27T01:50:17;102990.91;;;5.56;92.40
17362;BME280;8798;51.938;4.348;2024-01-27T01:52:46;102978.47;;;5.55;92.07
17362;BME280;8798;51.938;4.348;2024-01-27T01:55:15;102988.34;;;5.53;92.03
17362;BME280;8798;51.938;4.348;2024-01-27T01:57:43;102996.34;;;5.53;92.00
17362;BME280;8798;51.938;4.348;2024-01-27T02:00:12;102997.28;;;5.52;92.86
17362;BME280;8798;51.938;4.348;2024-01-27T02:02:44;103001.75;;;5.52;92.87
17362;BME280;8798;51.938;4.348;2024-01-27T02:05:13;103001.81;;;5.50;91.91
17362;BME280;8798;51.938;4.348;2024-01-27T02:07:42;103000.09;;;5.49;91.84
17362;BME280;8798;51.938;4.348;2024-01-27T02:10:13;103007.13;;;5.50;91.55
17362;BME280;8798;51.938;4.348;2024-01-27T02:12:42;103014.31;;;5.48;92.63
17362;BME280;8798;51.938;4.348;2024-01-27T02:15:10;103004.59;;;5.47;91.77
17362;BME280;8798;51.938;4.348;2024-01-27T02:17:40;103005.50;;;5.46;92.20
17362;BME280;8798;51.938;4.348;2024-01-27T02:20:10;103003.84;;;5.44;92.16
17362;BME280;8798;51.938;4.348;2024-01-27T02:22:38;103002.13;;;5.43;92.36
17362;BME280;8798;51.938;4.348;2024-01-27T02:25:08;103007.50;;;5.41;92.72
17362;BME280;8798;51.938;4.348;2024-01-27T02:27:36;103003.13;;;5.40;91.41
17362;BME280;8798;51.938;4.348;2024-01-27T02:30:05;103002.31;;;5.38;92.12
17362;BME280;8798;51.938;4.348;2024-01-27T02:32:33;102997.13;;;5.35;92.13
17362;BME280;8798;51.938;4.348;2024-01-27T02:35:01;102994.50;;;5.33;91.87
17362;BME280;8798;51.938;4.348;2024-01-27T02:37:29;102986.59;;;5.32;91.54
17362;BME280;8798;51.938;4.348;2024-01-27T02:39:57;102986.69;;;5.29;92.46
17362;BME280;8798;51.938;4.348;2024-01-27T02:42:27;102983.25;;;5.27;92.47
17362;BME280;8798;51.938;4.348;2024-01-27T02:44:55;102978.94;;;5.24;91.93
17362;BME280;8798;51.938;4.348;2024-01-27T02:47:23;102964.84;;;5.21;92.07
17362;BME280;8798;51.938;4.348;2024-01-27T02:49:51;102966.72;;;5.18;91.81
17362;BME280;8798;51.938;4.348;2024-01-27T02:52:19;102957.06;;;5.16;91.41
17362;BME280;8798;51.938;4.348;2024-01-27T02:54:47;102952.72;;;5.13;91.38
17362;BME280;8798;51.938;4.348;2024-01-27T02:57:15;102950.19;;;5.10;91.71
17362;BME280;8798;51.938;4.348;2024-01-27T02:59:47;102938.78;;;5.07;91.77
17362;BME280;8798;51.938;4.348;2024-01-27T03:02:16;102945.00;;;5.07;91.52
17362;BME280;8798;51.938;4.348;2024-01-27T03:04:51;102939.78;;;5.04;92.38
17362;BME280;8798;51.938;4.348;2024-01-27T03:07:19;102924.00;;;5.00;91.06
17362;BME280;8798;51.938;4.348;2024-01-27T03:09:47;102932.06;;;4.98;91.51
17362;BME280;8798;51.938;4.348;2024-01-27T03:12:15;102925.88;;;4.98;91.14
17362;BME280;8798;51.938;4.348;2024-01-27T03:14:44;102931.25;;;4.96;92.06
17362;BME280;8798;51.938;4.348;2024-01-27T03:17:14;102925.97;;;4.94;91.28
17362;BME280;8798;51.938;4.348;2024-01-27T03:19:42;102931.38;;;4.93;91.30
17362;BME280;8798;51.938;4.348;2024-01-27T03:22:14;102930.56;;;4.91;92.15
17362;BME280;8798;51.938;4.348;2024-01-27T03:24:42;102924.53;;;4.87;91.87
17362;BME280;8798;51.938;4.348;2024-01-27T03:27:10;102914.88;;;4.85;91.38
17362;BME280;8798;51.938;4.348;2024-01-27T03:29:38;102920.19;;;4.85;91.81
17362;BME280;8798;51.938;4.348;2024-01-27T03:32:06;102925.56;;;4.83;91.99
17362;BME280;8798;51.938;4.348;2024-01-27T03:34:35;102916.78;;;4.81;91.24
17362;BME280;8798;51.938;4.348;2024-01-27T03:37:04;102920.44;;;4.79;91.57
17362;BME280;8798;51.938;4.348;2024-01-27T03:39:31;102915.09;;;4.79;91.66
17362;BME280;8798;51.938;4.348;2024-01-27T03:42:00;102924.94;;;4.77;90.98
17362;BME280;8798;51.938;4.348;2024-01-27T03:44:27;102933.78;;;4.77;91.46
17362;BME280;8798;51.938;4.348;2024-01-27T03:46:55;102933.88;;;4.76;91.66
17362;BME280;8798;51.938;4.348;2024-01-27T03:49:23;102925.94;;;4.74;90.94
17362;BME280;8798;51.938;4.348;2024-01-27T03:51:53;102933.09;;;4.72;90.74
17362;BME280;8798;51.938;4.348;2024-01-27T03:54:21;102935.75;;;4.72;91.57
17362;BME280;8798;51.938;4.348;2024-01-27T03:56:49;102935.84;;;4.70;91.08
17362;BME280;8798;51.938;4.348;2024-01-27T03:59:17;102927.06;;;4.68;91.37
17362;BME280;8798;51.938;4.348;2024-01-27T04:01:45;102927.09;;;4.67;90.71
17362;BME280;8798;51.938;4.348;2024-01-27T04:04:13;102928.03;;;4.66;91.78
17362;BME280;8798;51.938;4.348;2024-01-27T04:06:41;102940.50;;;4.65;91.14
17362;BME280;8798;51.938;4.348;2024-01-27T04:09:11;102936.06;;;4.64;91.37
17362;BME280;8798;51.938;4.348;2024-01-27T04:11:39;102934.34;;;4.63;91.67
17362;BME280;8798;51.938;4.348;2024-01-27T04:14:07;102937.94;;;4.62;91.11
17362;BME280;8798;51.938;4.348;2024-01-27T04:16:35;102947.72;;;4.62;91.30
17362;BME280;8798;51.938;4.348;2024-01-27T04:19:03;102949.50;;;4.61;91.26
17362;BME280;8798;51.938;4.348;2024-01-27T04:21:31;102952.19;;;4.61;90.59
17362;BME280;8798;51.938;4.348;2024-01-27T04:23:59;102961.97;;;4.61;90.72
17362;BME280;8798;51.938;4.348;2024-01-27T04:26:28;102962.88;;;4.60;90.59
17362;BME280;8798;51.938;4.348;2024-01-27T04:28:56;102974.41;;;4.60;91.15
17362;BME280;8798;51.938;4.348;2024-01-27T04:31:24;102977.94;;;4.61;91.27
17362;BME280;8798;51.938;4.348;2024-01-27T04:33:52;102982.41;;;4.60;90.81
17362;BME280;8798;51.938;4.348;2024-01-27T04:36:27;102979.78;;;4.59;91.26
17362;BME280;8798;51.938;4.348;2024-01-27T04:38:56;102982.50;;;4.57;90.50
17362;BME280;8798;51.938;4.348;2024-01-27T04:41:24;102976.31;;;4.57;90.93
17362;BME280;8798;51.938;4.348;2024-01-27T04:43:53;102986.09;;;4.56;90.31
17362;BME280;8798;51.938;4.348;2024-01-27T04:46:23;102991.41;;;4.56;90.70
17362;BME280;8798;51.938;4.348;2024-01-27T04:48:51;102996.72;;;4.56;91.08
17362;BME280;8798;51.938;4.348;2024-01-27T04:51:19;103000.34;;;4.55;90.54
17362;BME280;8798;51.938;4.348;2024-01-27T04:53:47;103003.84;;;4.56;90.54
17362;BME280;8798;51.938;4.348;2024-01-27T04:56:15;103010.97;;;4.55;91.06
17362;BME280;8798;51.938;4.348;2024-01-27T04:58:43;103016.31;;;4.55;90.42
17362;BME280;8798;51.938;4.348;2024-01-27T05:01:12;103018.03;;;4.56;90.89
17362;BME280;8798;51.938;4.348;2024-01-27T05:03:40;103031.31;;;4.56;90.41
17362;BME280;8798;51.938;4.348;2024-01-27T05:06:08;103033.06;;;4.57;90.29
17362;BME280;8798;51.938;4.348;2024-01-27T05:08:37;103036.66;;;4.56;90.76
17362;BME280;8798;51.938;4.348;2024-01-27T05:11:06;103037.59;;;4.55;90.34
17362;BME280;8798;51.938;4.348;2024-01-27T05:13:34;103041.13;;;4.56;90.13
17362;BME280;8798;51.938;4.348;2024-01-27T05:16:04;103050.81;;;4.57;91.02
17362;BME280;8798;51.938;4.348;2024-01-27T05:18:34;103056.13;;;4.57;90.73
17362;BME280;8798;51.938;4.348;2024-01-27T05:21:02;103065.00;;;4.57;90.86
17362;BME280;8798;51.938;4.348;2024-01-27T05:23:30;103079.09;;;4.59;90.77
17362;BME280;8798;51.938;4.348;2024-01-27T05:25:58;103088.84;;;4.60;90.32
17362;BME280;8798;51.938;4.348;2024-01-27T05:28:26;103092.28;;;4.62;90.66
17362;BME280;8798;51.938;4.348;2024-01-27T05:30:54;103102.03;;;4.63;90.33
17362;BME280;8798;51.938;4.348;2024-01-27T05:33:22;103118.81;;;4.65;90.73
17362;BME280;8798;51.938;4.348;2024-01-27T05:35:52;103124.16;;;4.65;90.35
17362;BME280;8798;51.938;4.348;2024-01-27T05:38:20;103129.47;;;4.65;90.26
17362;BME280;8798;51.938;4.348;2024-01-27T05:40:48;103126.81;;;4.65;90.11
17362;BME280;8798;51.938;4.348;2024-01-27T05:43:17;103133.91;;;4.65;90.14
17362;BME280;8798;51.938;4.348;2024-01-27T05:45:45;103133.03;;;4.64;90.08
17362;BME280;8798;51.938;4.348;2024-01-27T05:48:13;103138.34;;;4.64;90.12
17362;BME280;8798;51.938;4.348;2024-01-27T05:50:42;103141.88;;;4.65;90.73
17362;BME280;8798;51.938;4.348;2024-01-27T05:53:12;103143.69;;;4.64;90.92
17362;BME280;8798;51.938;4.348;2024-01-27T05:55:42;103151.66;;;4.64;90.52
17362;BME280;8798;51.938;4.348;2024-01-27T05:58:12;103150.81;;;4.64;89.75
17362;BME280;8798;51.938;4.348;2024-01-27T06:00:42;103155.25;;;4.63;90.39
17362;BME280;8798;51.938;4.348;2024-01-27T06:03:10;103163.25;;;4.63;90.74
17362;BME280;8798;51.938;4.348;2024-01-27T06:05:38;103151.78;;;4.61;90.04
17362;BME280;8798;51.938;4.348;2024-01-27T06:08:06;103158.06;;;4.60;90.59
17362;BME280;8798;51.938;4.348;2024-01-27T06:10:36;103155.38;;;4.60;90.06
17362;BME280;8798;51.938;4.348;2024-01-27T06:13:04;103158.06;;;4.60;89.81
17362;BME280;8798;51.938;4.348;2024-01-27T06:15:32;103157.16;;;4.60;90.58
17362;BME280;8798;51.938;4.348;2024-01-27T06:18:00;103147.56;;;4.56;89.92
17362;BME280;8798;51.938;4.348;2024-01-27T06:20:28;103144.03;;;4.55;90.39
17362;BME280;8798;51.938;4.348;2024-01-27T06:22:56;103145.88;;;4.53;90.18
17362;BME280;8798;51.938;4.348;2024-01-27T06:25:24;103141.47;;;4.52;90.77
17362;BME280;8798;51.938;4.348;2024-01-27T06:27:53;103134.53;;;4.48;90.04
17362;BME280;8798;51.938;4.348;2024-01-27T06:30:21;103123.06;;;4.46;89.85
17362;BME280;8798;51.938;4.348;2024-01-27T06:32:49;103122.28;;;4.42;90.31
17362;BME280;8798;51.938;4.348;2024-01-27T06:35:17;103119.72;;;4.41;90.23
17362;BME280;8798;51.938;4.348;2024-01-27T06:37:45;103113.53;;;4.40;89.83
17362;BME280;8798;51.938;4.348;2024-01-27T06:40:13;103122.38;;;4.41;90.36
17362;BME280;8798;51.938;4.348;2024-01-27T06:42:42;103123.28;;;4.40;89.63
17362;BME280;8798;51.938;4.348;2024-01-27T06:45:11;103134.81;;;4.40;90.17
17362;BME280;8798;51.938;4.348;2024-01-27T06:47:39;103124.22;;;4.39;89.69
17362;BME280;8798;51.938;4.348;2024-01-27T06:50:08;103140.19;;;4.39;89.64
17362;BME280;8798;51.938;4.348;2024-01-27T06:52:37;103141.97;;;4.38;89.94
17362;BME280;8798;51.938;4.348;2024-01-27T06:55:05;103141.97;;;4.38;89.76
17362;BME280;8798;51.938;4.348;2024-01-27T06:57:33;103146.44;;;4.38;89.95
17362;BME280;8798;51.938;4.348;2024-01-27T07:00:02;103150.81;;;4.39;90.08
17362;BME280;8798;51.938;4.348;2024-01-27T07:02:31;103150.03;;;4.35;89.94
17362;BME280;8798;51.938;4.348;2024-01-27T07:04:59;103150.97;;;4.34;89.88
17362;BME280;8798;51.938;4.348;2024-01-27T07:07:28;103144.78;;;4.34;90.07
17362;BME280;8798;51.938;4.348;2024-01-27T07:09:56;103151.84;;;4.35;90.26
17362;BME280;8798;51.938;4.348;2024-01-27T07:12:24;103155.44;;;4.34;90.05
17362;BME280;8798;51.938;4.348;2024-01-27T07:14:52;103155.44;;;4.34;89.57
17362;BME280;8798;51.938;4.348;2024-01-27T07:17:23;103157.22;;;4.33;90.14
17362;BME280;8798;51.938;4.348;2024-01-27T07:19:53;103157.28;;;4.31;89.48
17362;BME280;8798;51.938;4.348;2024-01-27T07:22:22;103166.13;;;4.32;89.50
17362;BME280;8798;51.938;4.348;2024-01-27T07:24:50;103174.06;;;4.34;89.82
17362;BME280;8798;51.938;4.348;2024-01-27T07:27:18;103182.03;;;4.34;89.94
17362;BME280;8798;51.938;4.348;2024-01-27T07:29:46;103186.44;;;4.35;89.65
17362;BME280;8798;51.938;4.348;2024-01-27T07:32:15;103193.50;;;4.36;89.23
17362;BME280;8798;51.938;4.348;2024-01-27T07:34:43;103197.03;;;4.36;88.87
17362;BME280;8798;51.938;4.348;2024-01-27T07:37:13;103204.06;;;4.37;89.77
17362;BME280;8798;51.938;4.348;2024-01-27T07:39:40;103213.81;;;4.38;89.79
17362;BME280;8798;51.938;4.348;2024-01-27T07:42:08;103222.66;;;4.39;89.42
17362;BME280;8798;51.938;4.348;2024-01-27T07:44:37;103233.25;;;4.40;89.81
17362;BME280;8798;51.938;4.348;2024-01-27T07:47:05;103229.66;;;4.41;89.35
17362;BME280;8798;51.938;4.348;2024-01-27T07:49:33;103233.19;;;4.42;89.49
17362;BME280;8798;51.938;4.348;2024-01-27T07:52:01;103243.84;;;4.42;89.82
17362;BME280;8798;51.938;4.348;2024-01-27T07:54:30;103252.69;;;4.42;89.37
17362;BME280;8798;51.938;4.348;2024-01-27T07:56:59;103249.16;;;4.42;89.51
17362;BME280;8798;51.938;4.348;2024-01-27T07:59:27;103258.00;;;4.42;89.71
17362;BME280;8798;51.938;4.348;2024-01-27T08:01:55;103262.47;;;4.42;89.87
17362;BME280;8798;51.938;4.348;2024-01-27T08:04:23;103251.00;;;4.40;89.81
17362;BME280;8798;51.938;4.348;2024-01-27T08:06:52;103256.31;;;4.40;90.01
17362;BME280;8798;51.938;4.348;2024-01-27T08:09:21;103255.44;;;4.39;89.90
17362;BME280;8798;51.938;4.348;2024-01-27T08:11:51;103260.84;;;4.38;89.15
17362;BME280;8798;51.938;4.348;2024-01-27T08:14:20;103257.25;;;4.39;88.80
17362;BME280;8798;51.938;4.348;2024-01-27T08:16:49;103260.78;;;4.39;89.23
17362;BME280;8798;51.938;4.348;2024-01-27T08:19:17;103274.03;;;4.41;89.74
17362;BME280;8798;51.938;4.348;2024-01-27T08:21:47;103281.94;;;4.42;89.35
17362;BME280;8798;51.938;4.348;2024-01-27T08:24:16;103283.81;;;4.40;89.63
17362;BME280;8798;51.938;4.348;2024-01-27T08:26:44;103279.34;;;4.41;89.19
17362;BME280;8798;51.938;4.348;2024-01-27T08:29:16;103288.19;;;4.41;89.73
17362;BME280;8798;51.938;4.348;2024-01-27T08:31:44;103292.66;;;4.41;89.39
17362;BME280;8798;51.938;4.348;2024-01-27T08:34:12;103298.84;;;4.41;89.20
17362;BME280;8798;51.938;4.348;2024-01-27T08:36:41;103297.03;;;4.42;89.83
17362;BME280;8798;51.938;4.348;2024-01-27T08:39:09;103312.03;;;4.44;89.19
17362;BME280;8798;51.938;4.348;2024-01-27T08:41:40;103316.47;;;4.45;89.54
17362;BME280;8798;51.938;4.348;2024-01-27T08:44:07;103342.03;;;4.49;89.20
17362;BME280;8798;51.938;4.348;2024-01-27T08:46:37;103348.19;;;4.51;89.58
17362;BME280;8798;51.938;4.348;2024-01-27T08:49:05;103360.50;;;4.54;89.58
17362;BME280;8798;51.938;4.348;2024-01-27T08:51:33;103373.78;;;4.56;89.66
17362;BME280;8798;51.938;4.348;2024-01-27T08:54:01;103389.59;;;4.60;88.69
17362;BME280;8798;51.938;4.348;2024-01-27T08:56:30;103412.53;;;4.64;89.62
17362;BME280;8798;51.938;4.348;2024-01-27T08:58:58;103425.75;;;4.67;89.84
17362;BME280;8798;51.938;4.348;2024-01-27T09:01:25;103440.75;;;4.70;89.32
17362;BME280;8798;51.938;4.348;2024-01-27T09:03:55;103454.81;;;4.73;89.53
17362;BME280;8798;51.938;4.348;2024-01-27T09:06:23;103460.91;;;4.77;89.41
17362;BME280;8798;51.938;4.348;2024-01-27T09:08:57;103480.38;;;4.79;89.33
17362;BME280;8798;51.938;4.348;2024-01-27T09:11:25;103491.81;;;4.83;89.21
17362;BME280;8798;51.938;4.348;2024-01-27T09:13:56;103497.97;;;4.85;89.38
17362;BME280;8798;51.938;4.348;2024-01-27T09:16:24;103514.72;;;4.88;88.93
17362;BME280;8798;51.938;4.348;2024-01-27T09:18:52;103539.44;;;4.92;89.21
17362;BME280;8798;51.938;4.348;2024-01-27T09:21:22;103556.19;;;4.97;89.59
17362;BME280;8798;51.938;4.348;2024-01-27T09:23:55;103570.28;;;4.99;89.76
17362;BME280;8798;51.938;4.348;2024-01-27T09:26:25;103591.47;;;5.04;89.31
17362;BME280;8798;51.938;4.348;2024-01-27T09:28:53;103607.34;;;5.07;89.64
17362;BME280;8798;51.938;4.348;2024-01-27T09:31:22;103614.38;;;5.09;88.52
17362;BME280;8798;51.938;4.348;2024-01-27T09:33:50;103633.81;;;5.13;89.14
17362;BME280;8798;51.938;4.348;2024-01-27T09:36:21;103657.59;;;5.19;89.63
17362;BME280;8798;51.938;4.348;2024-01-27T09:38:50;103679.66;;;5.24;89.51
17362;BME280;8798;51.938;4.348;2024-01-27T09:41:19;103687.50;;;5.29;90.09
17362;BME280;8798;51.938;4.348;2024-01-27T09:43:47;103709.59;;;5.32;89.83
17362;BME280;8798;51.938;4.348;2024-01-27T09:46:16;103721.03;;;5.36;89.35
17362;BME280;8798;51.938;4.348;2024-01-27T09:48:44;103728.97;;;5.39;89.53
17362;BME280;8798;51.938;4.348;2024-01-27T09:51:13;103754.59;;;5.43;89.40
17362;BME280;8798;51.938;4.348;2024-01-27T09:53:42;103767.81;;;5.46;89.44
17362;BME280;8798;51.938;4.348;2024-01-27T09:56:12;103778.34;;;5.51;89.19
17362;BME280;8798;51.938;4.348;2024-01-27T09:58:45;103801.31;;;5.56;89.31
17362;BME280;8798;51.938;4.348;2024-01-27T10:01:16;103818.03;;;5.62;89.31
17362;BME280;8798;51.938;4.348;2024-01-27T10:03:46;103833.88;;;5.66;89.34
17362;BME280;8798;51.938;4.348;2024-01-27T10:06:14;103847.06;;;5.71;89.62
17362;BME280;8798;51.938;4.348;2024-01-27T10:08:51;103869.16;;;5.76;88.94
17362;BME280;8798;51.938;4.348;2024-01-27T10:11:20;103889.47;;;5.81;89.48
17362;BME280;8798;51.938;4.348;2024-01-27T10:13:54;103905.34;;;5.86;89.55
17362;BME280;8798;51.938;4.348;2024-01-27T10:16:26;103920.31;;;5.90;88.95
17362;BME280;8798;51.938;4.348;2024-01-27T10:19:01;103932.63;;;5.96;89.23
17362;BME280;8798;51.938;4.348;2024-01-27T10:21:30;103954.75;;;5.99;89.35
17362;BME280;8798;51.938;4.348;2024-01-27T10:24:00;103961.78;;;6.03;89.09
17362;BME280;8798;51.938;4.348;2024-01-27T10:26:31;103982.97;;;6.08;89.97
17362;BME280;8798;51.938;4.348;2024-01-27T10:29:02;103994.41;;;6.13;88.57
17362;BME280;8798;51.938;4.348;2024-01-27T10:31:32;104010.22;;;6.19;89.52
17362;BME280;8798;51.938;4.348;2024-01-27T10:34:01;104042.97;;;6.26;89.80
17362;BME280;8798;51.938;4.348;2024-01-27T10:36:40;104057.91;;;6.32;89.45
17362;BME280;8798;51.938;4.348;2024-01-27T10:39:17;104088.91;;;6.37;89.56
17362;BME280;8798;51.938;4.348;2024-01-27T10:41:47;104106.50;;;6.44;89.90
17362;BME280;8798;51.938;4.348;2024-01-27T10:44:19;104125.03;;;6.51;89.02
17362;BME280;8798;51.938;4.348;2024-01-27T10:46:48;104161.25;;;6.61;88.95
17362;BME280;8798;51.938;4.348;2024-01-27T10:49:17;104187.72;;;6.68;90.11
17362;BME280;8798;51.938;4.348;2024-01-27T10:51:53;104216.88;;;6.78;89.33
17362;BME280;8798;51.938;4.348;2024-01-27T10:54:25;104259.31;;;6.88;90.17
17362;BME280;8798;51.938;4.348;2024-01-27T10:56:56;104285.81;;;6.96;89.69
17362;BME280;8798;51.938;4.348;2024-01-27T10:59:26;104302.56;;;7.03;89.37
17362;BME280;8798;51.938;4.348;2024-01-27T11:01:56;104322.88;;;7.10;88.94
17362;BME280;8798;51.938;4.348;2024-01-27T11:04:24;104362.66;;;7.21;90.00
17362;BME280;8798;51.938;4.348;2024-01-27T11:06:53;104382.09;;;7.27;89.41
17362;BME280;8798;51.938;4.348;2024-01-27T11:09:24;104401.50;;;7.34;89.05
17362;BME280;8798;51.938;4.348;2024-01-27T11:11:53;104436.03;;;7.43;89.83
17362;BME280;8798;51.938;4.348;2024-01-27T11:14:21;104465.22;;;7.52;89.44
17362;BME280;8798;51.938;4.348;2024-01-27T11:16:54;104500.63;;;7.62;89.59
17362;BME280;8798;51.938;4.348;2024-01-27T11:19:23;104521.72;;;7.73;89.41
17362;BME280;8798;51.938;4.348;2024-01-27T11:21:59;104555.41;;;7.82;89.96
17362;BME280;8798;51.938;4.348;2024-01-27T11:24:30;104555.31;;;7.85;89.61
17362;BME280;8798;51.938;4.348;2024-01-27T11:27:02;104554.38;;;7.86;89.79
17362;BME280;8798;51.938;4.348;2024-01-27T11:29:30;104562.28;;;7.90;89.66
17362;BME280;8798;51.938;4.348;2024-01-27T11:32:00;104573.75;;;7.95;89.36
17362;BME280;8798;51.938;4.348;2024-01-27T11:34:28;104585.19;;;8.02;89.22
17362;BME280;8798;51.938;4.348;2024-01-27T11:37:12;104592.22;;;8.06;89.65
17362;BME280;8798;51.938;4.348;2024-01-27T11:39:41;104593.03;;;8.08;89.48
17362;BME280;8798;51.938;4.348;2024-01-27T11:42:11;104577.91;;;8.07;89.40
17362;BME280;8798;51.938;4.348;2024-01-27T11:44:40;104568.94;;;8.08;89.29
17362;BME280;8798;51.938;4.348;2024-01-27T11:47:15;104568.88;;;8.11;89.27
17362;BME280;8798;51.938;4.348;2024-01-27T11:49:50;104580.31;;;8.16;89.46
17362;BME280;8798;51.938;4.348;2024-01-27T11:52:20;104597.06;;;8.25;88.81
17362;BME280;8798;51.938;4.348;2024-01-27T11:54:54;104613.84;;;8.31;89.14
17362;BME280;8798;51.938;4.348;2024-01-27T11:57:23;104631.53;;;8.37;88.97
17362;BME280;8798;51.938;4.348;2024-01-27T11:59:51;104636.78;;;8.42;89.05
17362;BME280;8798;51.938;4.348;2024-01-27T12:02:19;104634.97;;;8.44;89.30
17362;BME280;8798;51.938;4.348;2024-01-27T12:04:47;104625.09;;;8.46;89.22
17362;BME280;8798;51.938;4.348;2024-01-27T12:07:16;104627.66;;;8.49;88.95
17362;BME280;8798;51.938;4.348;2024-01-27T12:09:48;104617.78;;;8.51;88.96
17362;BME280;8798;51.938;4.348;2024-01-27T12:12:19;104607.06;;;8.51;88.72
17362;BME280;8798;51.938;4.348;2024-01-27T12:14:49;104613.25;;;8.53;88.81
17362;BME280;8798;51.938;4.348;2024-01-27T12:17:17;104595.38;;;8.53;88.53
17362;BME280;8798;51.938;4.348;2024-01-27T12:19:46;104590.84;;;8.55;88.71
17362;BME280;8798;51.938;4.348;2024-01-27T12:22:21;104593.44;;;8.58;88.85
17362;BME280;8798;51.938;4.348;2024-01-27T12:24:49;104605.78;;;8.64;88.65
17362;BME280;8798;51.938;4.348;2024-01-27T12:27:21;104612.75;;;8.70;88.93
17362;BME280;8798;51.938;4.348;2024-01-27T12:29:50;104625.97;;;8.76;88.99
17362;BME280;8798;51.938;4.348;2024-01-27T12:32:18;104620.53;;;8.79;88.40
17362;BME280;8798;51.938;4.348;2024-01-27T12:34:46;104625.78;;;8.82;88.69
17362;BME280;8798;51.938;4.348;2024-01-27T12:37:16;104621.25;;;8.84;88.64
17362;BME280;8798;51.938;4.348;2024-01-27T12:39:45;104612.28;;;8.85;88.41
17362;BME280;8798;51.938;4.348;2024-01-27T12:42:13;104616.63;;;8.89;88.34
17362;BME280;8798;51.938;4.348;2024-01-27T12:44:42;104621.91;;;8.92;88.74
17362;BME280;8798;51.938;4.348;2024-01-27T12:47:11;104608.50;;;8.92;88.20
17362;BME280;8798;51.938;4.348;2024-01-27T12:49:40;104599.53;;;8.93;88.10
17362;BME280;8798;51.938;4.348;2024-01-27T12:52:08;104593.19;;;8.96;88.19
17362;BME280;8798;51.938;4.348;2024-01-27T12:54:36;104575.31;;;8.96;88.16
17362;BME280;8798;51.938;4.348;2024-01-27T12:57:05;104569.94;;;8.96;87.85
17362;BME280;8798;51.938;4.348;2024-01-27T12:59:34;104565.44;;;8.97;87.85
17362;BME280;8798;51.938;4.348;2024-01-27T13:02:03;104548.50;;;8.96;87.99
17362;BME280;8798;51.938;4.348;2024-01-27T13:04:31;104525.28;;;8.95;87.92
17362;BME280;8798;51.938;4.348;2024-01-27T13:06:59;104525.28;;;8.95;87.88
17362;BME280;8798;51.938;4.348;2024-01-27T13:09:28;104512.75;;;8.96;87.77
17362;BME280;8798;51.938;4.348;2024-01-27T13:11:56;104494.03;;;8.94;87.80
17362;BME280;8798;51.938;4.348;2024-01-27T13:14:24;104472.56;;;8.94;87.86
17362;BME280;8798;51.938;4.348;2024-01-27T13:16:52;104452.97;;;8.92;87.64
17362;BME280;8798;51.938;4.348;2024-01-27T13:19:22;104446.72;;;8.93;87.69